createdAt,value
2023-12-09T00:01:02.187Z,14.32
2023-12-09T00:03:29.482Z,13.20
2023-12-09T00:05:56.821Z,14.13
2023-12-09T00:08:24.195Z,13.70
2023-12-09T00:10:51.394Z,14.13
2023-12-09T00:13:18.529Z,14.18
2023-12-09T00:15:45.728Z,14.70
2023-12-09T00:18:13.115Z,14.90
2023-12-09T00:20:40.394Z,15.18
2023-12-09T00:23:08.770Z,17.08
2023-12-09T00:25:36.164Z,14.32
2023-12-09T00:28:03.693Z,14.23
2023-12-09T00:30:30.876Z,14.90
2023-12-09T00:32:58.228Z,16.73
2023-12-09T00:35:25.421Z,17.88
2023-12-09T00:37:52.593Z,15.20
2023-12-09T00:40:20.144Z,16.35
2023-12-09T00:42:50.353Z,25.92
2023-12-09T00:45:17.539Z,21.40
2023-12-09T00:47:45.065Z,17.00
2023-12-09T00:50:12.326Z,24.50
2023-12-09T00:52:39.511Z,21.80
2023-12-09T00:55:06.925Z,16.65
2023-12-09T00:57:34.144Z,19.20
2023-12-09T01:00:01.384Z,21.05
2023-12-09T01:02:29.533Z,18.08
2023-12-09T01:04:56.966Z,18.58
2023-12-09T01:07:24.211Z,16.65
2023-12-09T01:09:51.398Z,18.05
2023-12-09T01:12:18.604Z,19.58
2023-12-09T01:14:46.015Z,18.75
2023-12-09T01:17:13.205Z,22.08
2023-12-09T01:19:40.326Z,18.40
2023-12-09T01:22:07.548Z,17.90
2023-12-09T01:24:34.914Z,22.08
2023-12-09T01:27:02.135Z,24.25
2023-12-09T01:29:29.242Z,24.38
2023-12-09T01:31:56.430Z,19.48
2023-12-09T01:34:23.696Z,33.20
2023-12-09T01:36:50.841Z,17.52
2023-12-09T01:39:18.139Z,17.50
2023-12-09T01:41:45.269Z,19.38
2023-12-09T01:44:12.489Z,19.58
2023-12-09T01:46:39.789Z,24.48
2023-12-09T01:49:07.748Z,22.30
2023-12-09T01:51:36.099Z,19.05
2023-12-09T01:54:03.734Z,15.52
2023-12-09T01:56:30.890Z,16.25
2023-12-09T01:58:58.065Z,15.88
2023-12-09T02:01:25.530Z,17.88
2023-12-09T02:03:53.243Z,16.63
2023-12-09T02:06:21.192Z,18.27
2023-12-09T02:08:48.404Z,16.77
2023-12-09T02:11:34.551Z,17.15
2023-12-09T02:14:08.391Z,17.42
2023-12-09T02:16:49.958Z,17.45
2023-12-09T02:19:18.947Z,18.13
2023-12-09T02:22:01.568Z,18.17
2023-12-09T02:24:29.500Z,18.10
2023-12-09T02:27:00.126Z,18.73
2023-12-09T02:29:27.606Z,16.75
2023-12-09T02:31:58.685Z,17.05
2023-12-09T02:34:26.784Z,18.08
2023-12-09T02:36:54.685Z,17.27
2023-12-09T02:39:22.202Z,18.77
2023-12-09T02:41:49.876Z,19.20
2023-12-09T02:44:17.099Z,18.17
2023-12-09T02:46:44.189Z,18.08
2023-12-09T02:49:12.192Z,17.65
2023-12-09T02:51:39.412Z,18.55
2023-12-09T02:54:06.553Z,19.90
2023-12-09T02:56:33.717Z,19.20
2023-12-09T02:59:00.908Z,21.02
2023-12-09T03:01:28.148Z,20.65
2023-12-09T03:03:55.471Z,21.67
2023-12-09T03:06:22.711Z,19.52
2023-12-09T03:08:49.881Z,22.50
2023-12-09T03:11:17.065Z,21.10
2023-12-09T03:13:44.285Z,20.45
2023-12-09T03:16:11.406Z,20.75
2023-12-09T03:18:38.662Z,20.50
2023-12-09T03:21:06.121Z,21.08
2023-12-09T03:23:33.290Z,21.33
2023-12-09T03:26:00.417Z,21.58
2023-12-09T03:28:27.586Z,20.77
2023-12-09T03:30:54.740Z,21.83
2023-12-09T03:33:21.950Z,22.52
2023-12-09T03:35:49.148Z,21.55
2023-12-09T03:38:16.279Z,20.48
2023-12-09T03:40:43.414Z,19.02
2023-12-09T03:43:10.592Z,18.60
2023-12-09T03:45:37.819Z,18.27
2023-12-09T03:48:05.193Z,18.25
2023-12-09T03:50:32.491Z,18.27
2023-12-09T03:52:59.668Z,17.60
2023-12-09T03:55:26.778Z,16.88
2023-12-09T03:57:54.322Z,17.83
2023-12-09T04:00:21.547Z,18.42
2023-12-09T04:02:48.723Z,18.88
2023-12-09T04:05:15.936Z,18.77
2023-12-09T04:07:43.162Z,17.50
2023-12-09T04:10:10.455Z,16.25
2023-12-09T04:12:37.800Z,16.45
2023-12-09T04:15:05.277Z,17.23
2023-12-09T04:17:32.480Z,17.95
2023-12-09T04:19:59.750Z,15.98
2023-12-09T04:22:27.194Z,15.50
2023-12-09T04:24:54.573Z,15.68
2023-12-09T04:27:21.784Z,26.38
2023-12-09T04:29:50.178Z,15.57
2023-12-09T04:32:16.884Z,15.15
2023-12-09T04:34:43.892Z,14.15
2023-12-09T04:37:10.629Z,14.63
2023-12-09T04:39:37.439Z,13.65
2023-12-09T04:42:05.428Z,14.13
2023-12-09T04:44:32.267Z,14.05
2023-12-09T04:46:59.050Z,17.15
2023-12-09T04:49:25.946Z,17.67
2023-12-09T04:51:52.726Z,17.50
2023-12-09T04:54:19.621Z,18.88
2023-12-09T04:56:46.374Z,29.65
2023-12-09T04:59:13.162Z,31.80
2023-12-09T05:01:39.902Z,23.05
2023-12-09T05:04:07.169Z,20.88
2023-12-09T05:06:34.068Z,19.52
2023-12-09T05:09:00.889Z,18.38
2023-12-09T05:11:27.783Z,25.27
2023-12-09T05:13:54.561Z,16.75
2023-12-09T05:16:21.334Z,23.95
2023-12-09T05:18:48.494Z,16.73
2023-12-09T05:21:16.550Z,18.08
2023-12-09T05:23:43.327Z,24.60
2023-12-09T05:26:10.190Z,21.67
2023-12-09T05:28:36.925Z,25.45
2023-12-09T05:31:03.858Z,25.52
2023-12-09T05:33:30.767Z,16.23
2023-12-09T05:35:57.721Z,21.42
2023-12-09T05:38:24.469Z,19.17
2023-12-09T05:40:51.251Z,17.63
2023-12-09T05:43:17.943Z,16.75
2023-12-09T05:45:44.691Z,16.13
2023-12-09T05:48:11.737Z,18.10
2023-12-09T05:50:38.772Z,22.52
2023-12-09T05:53:05.524Z,18.63
2023-12-09T05:55:32.314Z,26.75
2023-12-09T05:57:59.043Z,20.40
2023-12-09T06:00:25.881Z,16.45
2023-12-09T06:02:52.850Z,15.60
2023-12-09T06:05:19.660Z,14.80
2023-12-09T06:07:46.408Z,16.40
2023-12-09T06:10:14.583Z,14.18
2023-12-09T06:12:42.270Z,15.50
2023-12-09T06:15:09.356Z,14.45
2023-12-09T06:17:36.186Z,14.90
2023-12-09T06:20:03.527Z,14.45
2023-12-09T06:22:30.739Z,14.30
2023-12-09T06:24:57.452Z,14.20
2023-12-09T06:27:25.112Z,12.75
2023-12-09T06:29:52.242Z,13.23
2023-12-09T06:32:19.018Z,12.30
2023-12-09T06:34:45.839Z,11.98
2023-12-09T06:37:12.710Z,11.98
2023-12-09T06:39:39.525Z,12.75
2023-12-09T06:42:07.070Z,12.73
2023-12-09T06:44:33.901Z,11.07
2023-12-09T06:47:00.678Z,12.93
2023-12-09T06:49:27.497Z,11.18
2023-12-09T06:51:54.438Z,11.20
2023-12-09T06:54:21.201Z,10.65
2023-12-09T06:56:47.948Z,10.35
2023-12-09T06:59:14.692Z,10.63
2023-12-09T07:01:44.189Z,9.88
2023-12-09T07:04:13.271Z,10.05
2023-12-09T07:06:40.775Z,9.90
2023-12-09T07:09:07.678Z,11.05
2023-12-09T07:11:34.540Z,10.05
2023-12-09T07:14:01.297Z,11.15
2023-12-09T07:16:28.092Z,10.23
2023-12-09T07:19:00.313Z,10.55
2023-12-09T07:23:56.737Z,23.05
2023-12-09T07:26:23.691Z,31.83
2023-12-09T07:28:50.527Z,27.60
2023-12-09T07:31:17.435Z,16.15
2023-12-09T07:33:44.610Z,15.65
2023-12-09T07:36:11.875Z,9.18
2023-12-09T07:38:38.717Z,9.45
2023-12-09T07:41:05.452Z,8.95
2023-12-09T07:43:33.044Z,9.20
2023-12-09T07:45:59.899Z,12.40
2023-12-09T07:48:27.134Z,9.98
2023-12-09T07:50:54.094Z,9.75
2023-12-09T07:53:20.920Z,10.40
2023-12-09T07:55:47.717Z,10.88
2023-12-09T07:58:14.428Z,13.02
2023-12-09T08:00:41.332Z,12.82
2023-12-09T08:03:08.279Z,13.25
2023-12-09T08:05:36.136Z,12.02
2023-12-09T08:08:04.077Z,9.85
2023-12-09T08:10:30.788Z,10.50
2023-12-09T08:12:57.698Z,18.38
2023-12-09T08:15:24.876Z,11.68
2023-12-09T08:17:51.763Z,15.88
2023-12-09T08:20:18.534Z,20.48
2023-12-09T08:22:45.273Z,20.92
2023-12-09T08:25:12.100Z,14.77
2023-12-09T08:27:41.893Z,6.97
2023-12-09T08:30:13.403Z,8.27
2023-12-09T08:32:42.416Z,10.23
2023-12-09T08:35:10.741Z,10.23
2023-12-09T08:37:38.620Z,11.52
2023-12-09T08:40:12.117Z,19.08
2023-12-09T08:42:43.932Z,17.02
2023-12-09T08:45:12.719Z,18.10
2023-12-09T08:47:42.874Z,13.63
2023-12-09T08:50:21.961Z,10.88
2023-12-09T08:52:55.236Z,9.30
2023-12-09T08:55:22.725Z,8.38
2023-12-09T08:57:50.476Z,6.40
2023-12-09T09:00:21.617Z,6.28
2023-12-09T09:02:49.026Z,6.20
2023-12-09T09:05:16.254Z,5.90
2023-12-09T09:07:46.527Z,6.25
2023-12-09T09:10:13.409Z,5.20
2023-12-09T09:12:40.255Z,3.65
2023-12-09T09:15:09.153Z,3.92
2023-12-09T09:17:36.860Z,5.57
2023-12-09T09:20:06.636Z,2.75
2023-12-09T09:22:34.231Z,2.15
2023-12-09T09:25:00.988Z,2.58
2023-12-09T09:27:27.836Z,3.72
2023-12-09T09:29:54.753Z,2.92
2023-12-09T09:32:22.571Z,2.95
2023-12-09T09:34:49.914Z,2.88
2023-12-09T09:37:16.965Z,3.28
2023-12-09T09:39:43.932Z,3.03
2023-12-09T09:42:22.872Z,3.60
2023-12-09T09:45:06.596Z,3.75
2023-12-09T09:47:38.857Z,3.90
2023-12-09T09:50:07.760Z,4.03
2023-12-09T09:52:38.817Z,4.40
2023-12-09T09:55:09.713Z,3.75
2023-12-09T09:57:36.506Z,3.70
2023-12-09T10:00:13.695Z,3.47
2023-12-09T10:02:45.314Z,3.55
2023-12-09T10:05:14.115Z,3.20
2023-12-09T10:07:41.513Z,3.70
2023-12-09T10:10:08.928Z,3.70
2023-12-09T10:12:36.798Z,4.07
2023-12-09T10:15:05.077Z,4.00
2023-12-09T10:17:32.760Z,4.10
2023-12-09T10:20:00.589Z,3.40
2023-12-09T10:22:29.264Z,3.63
2023-12-09T10:24:56.540Z,3.22
2023-12-09T10:27:25.446Z,3.60
2023-12-09T10:29:57.468Z,3.83
2023-12-09T10:32:26.303Z,4.97
2023-12-09T10:34:54.045Z,4.32
2023-12-09T10:37:22.147Z,4.25
2023-12-09T10:39:51.128Z,5.40
2023-12-09T10:42:17.965Z,5.00
2023-12-09T10:44:44.774Z,3.20
2023-12-09T10:47:11.610Z,5.15
2023-12-09T10:49:38.496Z,3.90
2023-12-09T10:52:05.883Z,3.70
2023-12-09T10:54:32.831Z,4.78
2023-12-09T10:57:00.171Z,4.82
2023-12-09T10:59:30.537Z,4.78
2023-12-09T11:01:59.178Z,4.25
2023-12-09T11:04:26.504Z,3.78
2023-12-09T11:06:56.825Z,3.83
2023-12-09T11:09:24.156Z,3.22
2023-12-09T11:11:51.035Z,4.95
2023-12-09T11:14:17.913Z,3.75
2023-12-09T11:16:45.722Z,3.35
2023-12-09T11:19:17.465Z,3.55
2023-12-09T11:21:47.330Z,3.50
2023-12-09T11:24:19.964Z,3.33
2023-12-09T11:29:18.370Z,3.40
2023-12-09T11:31:50.184Z,4.57
2023-12-09T11:34:21.986Z,3.92
2023-12-09T11:36:53.127Z,3.47
2023-12-09T11:39:22.099Z,3.40
2023-12-09T11:41:50.209Z,3.58
2023-12-09T11:44:17.578Z,2.88
2023-12-09T11:46:44.619Z,3.53
2023-12-09T11:49:11.763Z,4.13
2023-12-09T11:51:40.128Z,2.90
2023-12-09T11:54:09.474Z,2.97
2023-12-09T11:56:38.780Z,3.53
2023-12-09T11:59:06.498Z,3.63
2023-12-09T12:01:35.103Z,3.13
2023-12-09T12:04:02.227Z,3.25
2023-12-09T12:06:29.490Z,4.45
2023-12-09T12:08:56.341Z,3.30
2023-12-09T12:11:25.559Z,4.78
2023-12-09T12:13:54.019Z,3.95
2023-12-09T12:16:21.892Z,3.63
2023-12-09T12:18:49.542Z,3.63
2023-12-09T12:21:16.983Z,4.75
2023-12-09T12:23:44.437Z,3.53
2023-12-09T12:26:12.708Z,3.45
2023-12-09T12:28:39.913Z,3.38
2023-12-09T12:31:08.001Z,3.10
2023-12-09T12:33:35.999Z,3.63
2023-12-09T12:36:03.317Z,3.22
2023-12-09T12:38:30.263Z,2.70
2023-12-09T12:41:00.596Z,2.75
2023-12-09T12:43:32.623Z,2.67
2023-12-09T12:46:01.087Z,1.95
2023-12-09T12:48:28.788Z,1.70
2023-12-09T12:50:56.085Z,2.65
2023-12-09T12:53:24.755Z,2.97
2023-12-09T12:55:53.712Z,2.75
2023-12-09T12:58:20.673Z,2.20
2023-12-09T13:00:52.897Z,2.33
2023-12-09T13:03:20.049Z,2.25
2023-12-09T13:05:47.105Z,2.47
2023-12-09T13:08:14.387Z,1.92
2023-12-09T13:10:41.229Z,2.30
2023-12-09T13:13:08.017Z,6.43
2023-12-09T13:15:35.786Z,6.63
2023-12-09T13:18:03.055Z,3.80
2023-12-09T13:20:30.465Z,2.67
2023-12-09T13:22:58.073Z,2.63
2023-12-09T13:25:25.010Z,2.95
2023-12-09T13:27:57.395Z,2.78
2023-12-09T13:30:35.046Z,2.75
2023-12-09T13:33:11.243Z,2.75
2023-12-09T13:35:47.444Z,3.38
2023-12-09T13:38:34.177Z,3.28
2023-12-09T13:41:32.647Z,2.95
2023-12-09T13:44:09.912Z,3.30
2023-12-09T13:46:50.786Z,3.10
2023-12-09T13:49:27.693Z,3.05
2023-12-09T13:54:53.613Z,4.22
2023-12-09T13:57:41.695Z,12.02
2023-12-09T14:00:57.466Z,5.20
2023-12-09T14:03:40.748Z,5.03
2023-12-09T14:06:37.934Z,5.25
2023-12-09T14:12:08.117Z,4.88
2023-12-09T14:14:34.856Z,4.65
2023-12-09T14:17:01.924Z,6.55
2023-12-09T14:19:29.201Z,5.30
2023-12-09T14:21:56.105Z,5.20
2023-12-09T14:24:23.831Z,6.10
2023-12-09T14:26:50.858Z,5.28
2023-12-09T14:29:17.708Z,6.05
2023-12-09T14:31:44.471Z,6.57
2023-12-09T14:34:11.649Z,6.90
2023-12-09T14:36:39.534Z,7.60
2023-12-09T14:39:08.680Z,10.75
2023-12-09T14:41:35.511Z,12.13
2023-12-09T14:44:08.244Z,8.05
2023-12-09T14:46:36.067Z,10.70
2023-12-09T14:49:04.706Z,8.00
2023-12-09T14:51:40.518Z,7.75
2023-12-09T14:54:15.449Z,10.57
2023-12-09T14:56:44.024Z,9.25
2023-12-09T14:59:11.676Z,9.05
2023-12-09T15:01:38.501Z,8.43
2023-12-09T15:04:05.677Z,9.23
2023-12-09T15:06:33.484Z,10.00
2023-12-09T15:09:00.660Z,8.52
2023-12-09T15:11:27.855Z,7.57
2023-12-09T15:13:55.228Z,9.00
2023-12-09T15:16:22.323Z,9.70
2023-12-09T15:18:49.401Z,9.02
2023-12-09T15:21:16.807Z,6.72
2023-12-09T15:23:43.722Z,10.02
2023-12-09T15:26:11.757Z,10.40
2023-12-09T15:28:39.073Z,10.38
2023-12-09T15:31:06.023Z,10.75
2023-12-09T15:33:32.918Z,8.65
2023-12-09T15:35:59.985Z,9.48
2023-12-09T15:38:26.801Z,10.65
2023-12-09T15:40:54.129Z,10.68
2023-12-09T15:43:21.481Z,9.02
2023-12-09T15:45:48.318Z,7.97
2023-12-09T15:48:16.393Z,8.73
2023-12-09T15:50:43.455Z,9.02
2023-12-09T15:53:10.271Z,8.52
2023-12-09T15:55:38.503Z,7.57
2023-12-09T15:58:05.725Z,7.57
2023-12-09T16:00:34.800Z,4.95
2023-12-09T16:03:01.850Z,6.57
2023-12-09T16:05:28.686Z,7.32
2023-12-09T16:07:55.846Z,7.93
2023-12-09T16:10:22.670Z,9.63
2023-12-09T16:12:49.647Z,9.07
2023-12-09T16:15:16.647Z,7.25
2023-12-09T16:17:43.598Z,7.38
2023-12-09T16:20:12.144Z,7.50
2023-12-09T16:22:39.570Z,7.40
2023-12-09T16:25:07.124Z,6.80
2023-12-09T16:27:35.694Z,6.63
2023-12-09T16:30:04.865Z,6.78
2023-12-09T16:32:32.806Z,7.30
2023-12-09T16:34:59.943Z,6.68
2023-12-09T16:37:26.964Z,7.30
2023-12-09T16:39:54.023Z,6.43
2023-12-09T16:42:21.460Z,6.53
2023-12-09T16:44:48.817Z,6.45
2023-12-09T16:47:17.217Z,5.43
2023-12-09T16:49:44.420Z,5.95
2023-12-09T16:52:11.468Z,5.00
2023-12-09T16:54:38.510Z,5.25
2023-12-09T16:57:05.464Z,5.55
2023-12-09T16:59:32.436Z,5.68
2023-12-09T17:02:00.289Z,4.65
2023-12-09T17:04:27.769Z,4.53
2023-12-09T17:06:55.214Z,4.78
2023-12-09T17:09:22.739Z,4.20
2023-12-09T17:11:52.890Z,4.22
2023-12-09T17:14:20.730Z,3.33
2023-12-09T17:16:47.932Z,3.30
2023-12-09T17:19:14.996Z,2.38
2023-12-09T17:21:42.129Z,3.45
2023-12-09T17:24:09.024Z,3.28
2023-12-09T17:26:36.319Z,3.42
2023-12-09T17:29:03.502Z,3.40
2023-12-09T17:31:30.728Z,3.47
2023-12-09T17:33:57.857Z,3.38
2023-12-09T17:36:27.070Z,3.33
2023-12-09T17:38:56.759Z,2.88
2023-12-09T17:41:23.853Z,2.95
2023-12-09T17:43:50.662Z,2.83
2023-12-09T17:46:18.603Z,2.72
2023-12-09T17:48:45.475Z,2.72
2023-12-09T17:51:12.739Z,2.15
2023-12-09T17:53:39.625Z,2.35
2023-12-09T17:56:07.051Z,2.40
2023-12-09T17:58:33.952Z,2.47
2023-12-09T18:01:01.105Z,2.15
2023-12-09T18:03:28.153Z,2.72
2023-12-09T18:05:55.462Z,5.20
2023-12-09T18:08:22.576Z,2.25
2023-12-09T18:10:49.459Z,2.47
2023-12-09T18:13:16.325Z,2.40
2023-12-09T18:15:45.572Z,1.73
2023-12-09T18:18:13.227Z,1.55
2023-12-09T18:20:40.944Z,1.50
2023-12-09T18:23:07.884Z,1.88
2023-12-09T18:25:34.781Z,2.03
2023-12-09T18:28:05.621Z,1.77
2023-12-09T18:30:32.978Z,1.65
2023-12-09T18:33:00.602Z,1.92
2023-12-09T18:35:27.788Z,1.92
2023-12-09T18:37:54.990Z,2.08
2023-12-09T18:40:23.990Z,2.15
2023-12-09T18:42:52.352Z,4.68
2023-12-09T18:45:22.413Z,2.20
2023-12-09T18:47:51.646Z,2.33
2023-12-09T18:50:18.721Z,1.63
2023-12-09T18:52:46.288Z,2.53
2023-12-09T18:55:13.700Z,2.00
2023-12-09T18:57:41.376Z,2.03
2023-12-09T19:00:09.025Z,2.28
2023-12-09T19:02:36.629Z,2.00
2023-12-09T19:05:04.126Z,1.88
2023-12-09T19:07:31.648Z,2.13
2023-12-09T19:09:59.229Z,2.95
2023-12-09T19:12:28.182Z,2.10
2023-12-09T19:14:56.588Z,1.80
2023-12-09T19:17:24.760Z,2.38
2023-12-09T19:19:51.571Z,2.53
2023-12-09T19:22:18.620Z,2.97
2023-12-09T19:24:45.493Z,4.20
2023-12-09T19:27:12.378Z,3.65
2023-12-09T19:29:40.585Z,4.38
2023-12-09T19:32:08.073Z,14.60
2023-12-09T19:34:35.585Z,11.80
2023-12-09T19:37:02.519Z,11.13
2023-12-09T19:39:29.350Z,8.43
2023-12-09T19:41:56.160Z,4.28
2023-12-09T19:44:24.739Z,7.28
2023-12-09T19:46:52.244Z,4.00
2023-12-09T19:49:19.206Z,2.92
2023-12-09T19:51:46.271Z,3.58
2023-12-09T19:54:13.237Z,2.83
2023-12-09T19:56:40.123Z,3.33
2023-12-09T19:59:06.883Z,7.30
2023-12-09T20:01:33.707Z,3.85
2023-12-09T20:04:00.597Z,4.85
2023-12-09T20:06:29.154Z,4.03
2023-12-09T20:08:56.529Z,4.63
2023-12-09T20:11:23.480Z,5.60
2023-12-09T20:13:50.387Z,3.45
2023-12-09T20:16:17.270Z,4.65
2023-12-09T20:18:44.155Z,5.95
2023-12-09T20:21:11.040Z,5.53
2023-12-09T20:23:38.638Z,5.10
2023-12-09T20:26:05.841Z,4.65
2023-12-09T20:28:32.656Z,5.18
2023-12-09T20:31:01.042Z,4.65
2023-12-09T20:33:28.806Z,3.75
2023-12-09T20:35:55.834Z,5.18
2023-12-09T20:38:22.795Z,3.70
2023-12-09T20:40:49.770Z,3.72
2023-12-09T20:43:17.072Z,5.22
2023-12-09T20:45:44.077Z,4.82
2023-12-09T20:48:11.237Z,5.03
2023-12-09T20:50:38.173Z,4.55
2023-12-09T20:53:07.134Z,3.67
2023-12-09T20:55:34.067Z,3.35
2023-12-09T20:58:01.677Z,4.30
2023-12-09T21:00:28.610Z,4.40
2023-12-09T21:02:55.781Z,3.33
2023-12-09T21:05:23.044Z,3.78
2023-12-09T21:07:55.142Z,4.60
2023-12-09T21:10:23.110Z,3.78
2023-12-09T21:12:51.689Z,3.30
2023-12-09T21:15:19.178Z,4.15
2023-12-09T21:17:46.246Z,3.80
2023-12-09T21:20:13.354Z,3.10
2023-12-09T21:22:40.196Z,3.47
2023-12-09T21:25:07.645Z,2.67
2023-12-09T21:27:34.640Z,2.45
2023-12-09T21:30:01.516Z,2.65
2023-12-09T21:32:28.461Z,2.88
2023-12-09T21:34:56.298Z,2.55
2023-12-09T21:37:23.198Z,2.42
2023-12-09T21:39:50.164Z,2.80
2023-12-09T21:42:17.815Z,2.58
2023-12-09T21:44:45.983Z,2.70
2023-12-09T21:47:13.024Z,2.90
2023-12-09T21:49:42.829Z,2.80
2023-12-09T21:52:09.891Z,3.15
2023-12-09T21:54:36.739Z,2.80
2023-12-09T21:57:03.712Z,3.55
2023-12-09T21:59:30.573Z,3.35
2023-12-09T22:02:00.755Z,2.97
2023-12-09T22:04:28.726Z,3.10
2023-12-09T22:06:55.798Z,2.75
2023-12-09T22:09:22.717Z,2.70
2023-12-09T22:11:49.754Z,2.40
2023-12-09T22:14:16.546Z,2.63
2023-12-09T22:16:43.928Z,2.75
2023-12-09T22:19:11.409Z,2.40
2023-12-09T22:21:44.101Z,1.80
2023-12-09T22:24:11.582Z,2.00
2023-12-09T22:26:43.381Z,2.17
2023-12-09T22:29:10.514Z,4.13
2023-12-09T22:31:46.371Z,3.20
2023-12-09T22:34:13.576Z,2.88
2023-12-09T22:36:40.630Z,2.05
2023-12-09T22:39:09.217Z,1.83
2023-12-09T22:41:36.265Z,2.67
2023-12-09T22:44:04.073Z,3.00
2023-12-09T22:46:32.171Z,2.03
2023-12-09T22:48:59.947Z,1.77
2023-12-09T22:51:27.923Z,2.42
2023-12-09T22:53:55.121Z,3.47
2023-12-09T22:56:22.631Z,1.48
2023-12-09T22:58:50.809Z,2.28
2023-12-09T23:01:25.327Z,1.02
2023-12-09T23:03:52.819Z,1.13
2023-12-09T23:06:20.548Z,1.60
2023-12-09T23:08:48.300Z,1.70
2023-12-09T23:11:15.155Z,2.05
2023-12-09T23:13:42.069Z,1.55
2023-12-09T23:16:10.798Z,1.20
2023-12-09T23:18:42.065Z,1.67
2023-12-09T23:21:09.445Z,2.58
2023-12-09T23:23:37.214Z,3.83
2023-12-09T23:26:05.002Z,3.40
2023-12-09T23:28:32.971Z,2.25
2023-12-09T23:31:03.103Z,2.20
2023-12-09T23:33:31.591Z,1.90
2023-12-09T23:35:59.988Z,2.13
2023-12-09T23:38:28.180Z,2.80
2023-12-09T23:40:56.440Z,2.08
2023-12-09T23:43:24.665Z,2.95
2023-12-09T23:45:52.966Z,2.17
2023-12-09T23:48:21.670Z,2.47
2023-12-09T23:50:49.991Z,2.00
2023-12-09T23:53:19.609Z,1.92
2023-12-09T23:55:48.020Z,2.28
2023-12-09T23:58:16.309Z,3.13
